Time;durP1;ratioP1;P1;durP2;ratioP2;P2;SDS_P1;SDS_P2;PMS_P1;PMS_P2;Temp;Humidity;BMP_temperature;BMP_pressure;BME280_temperature;BME280_humidity;BME280_pressure;Samples;Min_cycle;Max_cycle;Signal;HPM_P1;HPM_P2
2022/10/14 00:00:20;;;;;;;4.78;2.92;;;14.00;99.90;;;;;;5079464;28;20052;-79
2022/10/14 00:02:46;;;;;;;6.55;3.25;;;14.00;99.90;;;;;;5078744;28;20468;-79
2022/10/14 00:05:11;;;;;;;5.13;3.10;;;13.90;99.90;;;;;;5078527;28;20072;-79
2022/10/14 00:07:37;;;;;;;7.07;3.05;;;13.90;99.90;;;;;;5075330;28;20067;-80
2022/10/14 00:10:05;;;;;;;4.75;2.35;;;13.80;99.90;;;;;;5075131;28;20554;-80
2022/10/14 00:12:32;;;;;;;4.65;2.78;;;13.70;99.90;;;;;;5074293;28;20037;-79
2022/10/14 00:14:58;;;;;;;6.53;2.30;;;13.80;99.90;;;;;;5072901;28;20395;-80
2022/10/14 00:17:24;;;;;;;5.90;2.63;;;13.70;99.90;;;;;;5073864;28;20519;-78
2022/10/14 00:19:50;;;;;;;5.15;2.47;;;13.80;99.90;;;;;;5073594;28;20032;-78
2022/10/14 00:22:15;;;;;;;3.42;2.20;;;13.70;99.90;;;;;;5074458;28;20131;-78
2022/10/14 00:24:41;;;;;;;2.80;2.03;;;13.70;99.90;;;;;;5073081;28;20094;-78
2022/10/14 00:27:08;;;;;;;2.53;2.10;;;13.70;99.90;;;;;;5074330;28;20036;-79
2022/10/14 00:29:34;;;;;;;4.47;2.75;;;13.70;99.90;;;;;;5073368;28;20032;-78
2022/10/14 00:32:00;;;;;;;8.15;3.47;;;13.70;99.90;;;;;;5073089;28;20040;-78
2022/10/14 00:34:25;;;;;;;9.25;3.88;;;13.70;99.90;;;;;;5073622;28;20033;-78
2022/10/14 00:36:51;;;;;;;5.78;3.03;;;13.60;99.90;;;;;;5074674;28;20411;-79
2022/10/14 00:39:17;;;;;;;5.40;2.80;;;13.60;99.90;;;;;;5073766;28;20039;-79
2022/10/14 00:41:44;;;;;;;5.32;2.88;;;13.60;99.90;;;;;;5074616;28;20492;-79
2022/10/14 00:44:09;;;;;;;6.07;2.33;;;13.60;99.90;;;;;;5074518;28;20033;-79
2022/10/14 00:46:47;;;;;;;4.70;2.28;;;13.70;99.90;;;;;;5074335;28;20044;-79
2022/10/14 00:49:26;;;;;;;3.75;2.10;;;13.70;99.90;;;;;;5074257;28;20036;-79
2022/10/14 00:51:57;;;;;;;2.33;2.10;;;13.70;99.90;;;;;;5075889;28;20444;-79
2022/10/14 00:54:28;;;;;;;3.88;2.40;;;13.70;99.90;;;;;;5075864;28;20064;-80
2022/10/14 00:56:54;;;;;;;2.78;1.73;;;13.60;99.90;;;;;;5074753;28;20040;-80
2022/10/14 00:59:20;;;;;;;4.95;1.80;;;13.50;99.90;;;;;;5074396;28;20032;-78
2022/10/14 01:01:46;;;;;;;5.07;1.73;;;13.50;99.90;;;;;;5074280;28;20035;-80
2022/10/14 01:04:12;;;;;;;4.25;1.85;;;13.50;99.90;;;;;;5073824;28;20066;-80
2022/10/14 01:06:52;;;;;;;2.53;1.70;;;13.50;99.90;;;;;;5073803;28;20051;-80
2022/10/14 01:09:35;;;;;;;1.88;1.40;;;13.60;99.90;;;;;;5067198;28;20046;-79
2022/10/14 01:12:25;;;;;;;4.85;1.60;;;13.60;99.90;;;;;;5053976;28;20112;-78
2022/10/14 01:15:03;;;;;;;3.30;1.70;;;13.60;99.90;;;;;;5072069;28;20044;-78
2022/10/14 01:18:06;;;;;;;2.10;1.60;;;13.70;99.90;;;;;;5072417;28;20442;-78
2022/10/14 01:20:38;;;;;;;5.65;1.75;;;13.60;99.90;;;;;;5072208;28;20078;-78
2022/10/14 01:23:26;;;;;;;3.55;1.30;;;13.50;99.90;;;;;;5074114;28;20047;-79
2022/10/14 01:26:11;;;;;;;2.20;1.25;;;13.40;99.90;;;;;;5072261;28;20492;-79
2022/10/14 01:29:05;;;;;;;2.30;1.10;;;13.50;99.90;;;;;;5075332;28;20036;-79
2022/10/14 01:31:33;;;;;;;3.72;1.73;;;13.50;99.90;;;;;;5073221;28;20467;-79
2022/10/14 01:34:04;;;;;;;2.35;1.65;;;13.40;99.90;;;;;;5075713;28;20041;-79
2022/10/14 01:36:37;;;;;;;5.10;1.42;;;13.50;99.90;;;;;;5075731;28;20408;-78
2022/10/14 01:39:15;;;;;;;2.03;1.10;;;13.50;99.90;;;;;;5076773;28;20060;-79
2022/10/14 01:41:51;;;;;;;2.00;1.10;;;13.40;99.90;;;;;;5082029;28;20519;-78
2022/10/14 01:44:20;;;;;;;4.57;1.55;;;13.30;99.90;;;;;;5081826;28;20036;-79
2022/10/14 01:46:51;;;;;;;3.00;1.50;;;13.20;99.90;;;;;;5081449;28;20071;-78
2022/10/14 01:49:29;;;;;;;2.35;1.27;;;13.10;99.90;;;;;;5079834;28;20128;-78
2022/10/14 01:52:06;;;;;;;1.90;1.50;;;13.20;99.90;;;;;;5078839;28;20044;-78
2022/10/14 01:54:37;;;;;;;3.33;1.83;;;13.20;99.90;;;;;;5078929;28;20044;-79
2022/10/14 01:57:10;;;;;;;2.72;1.10;;;13.20;99.90;;;;;;5081156;28;20037;-79
2022/10/14 01:59:37;;;;;;;3.25;1.08;;;13.30;99.90;;;;;;5080221;28;20040;-79
2022/10/14 02:02:03;;;;;;;0.95;0.80;;;13.30;99.90;;;;;;5080068;28;20561;-78
2022/10/14 02:04:29;;;;;;;7.45;1.63;;;13.30;99.90;;;;;;5078795;28;20048;-79
2022/10/14 02:07:18;;;;;;;5.00;1.80;;;13.20;99.90;;;;;;5079422;28;20177;-78
2022/10/14 02:09:55;;;;;;;3.78;1.40;;;13.20;99.90;;;;;;5073674;28;20036;-78
2022/10/14 02:12:32;;;;;;;3.55;1.40;;;13.10;99.90;;;;;;5080309;28;20083;-79
2022/10/14 02:15:23;;;;;;;3.42;1.48;;;13.10;99.90;;;;;;5080657;28;20181;-79
2022/10/14 02:18:18;;;;;;;2.10;1.20;;;13.10;99.90;;;;;;5078578;28;20074;-79
2022/10/14 02:21:05;;;;;;;3.67;1.42;;;13.20;99.90;;;;;;5078960;28;20090;-79
2022/10/14 02:23:48;;;;;;;4.18;1.38;;;13.20;99.90;;;;;;5077938;28;20090;-79
2022/10/14 02:26:14;;;;;;;1.00;0.70;;;13.30;99.90;;;;;;5076751;28;20052;-78
2022/10/14 02:28:43;;;;;;;2.50;1.27;;;13.40;99.90;;;;;;5075639;28;20032;-78
2022/10/14 02:31:13;;;;;;;4.40;1.20;;;13.30;99.90;;;;;;5076790;28;20044;-78
2022/10/14 02:33:43;;;;;;;4.55;1.30;;;13.40;99.90;;;;;;5075768;28;20037;-79
2022/10/14 02:36:15;;;;;;;1.70;0.95;;;13.30;99.90;;;;;;5077296;28;20399;-79
2022/10/14 02:38:42;;;;;;;2.30;1.30;;;13.40;99.90;;;;;;5077660;28;20032;-79
2022/10/14 02:41:12;;;;;;;4.00;1.42;;;13.40;99.90;;;;;;5077727;28;20044;-79
2022/10/14 02:43:38;;;;;;;2.53;1.52;;;13.30;99.90;;;;;;5077125;28;20040;-79
2022/10/14 02:46:04;;;;;;;2.20;1.27;;;13.30;99.90;;;;;;5077145;28;20044;-79
2022/10/14 02:48:30;;;;;;;1.95;1.13;;;13.20;99.90;;;;;;5077753;28;20411;-79
2022/10/14 02:50:56;;;;;;;1.58;1.13;;;13.20;99.90;;;;;;5076598;28;20044;-79
2022/10/14 02:53:22;;;;;;;3.25;1.10;;;13.20;99.90;;;;;;5077222;28;20496;-79
2022/10/14 02:55:48;;;;;;;1.60;1.20;;;13.20;99.90;;;;;;5077528;28;20115;-79
2022/10/14 02:58:13;;;;;;;1.95;1.00;;;13.30;99.90;;;;;;5077741;28;20473;-79
2022/10/14 03:00:39;;;;;;;1.17;0.77;;;13.30;99.90;;;;;;5076846;28;20041;-79
2022/10/14 03:03:05;;;;;;;2.97;1.00;;;13.30;99.90;;;;;;5076402;28;20036;-79
2022/10/14 03:05:31;;;;;;;1.77;1.02;;;13.40;99.90;;;;;;5076318;28;20044;-78
2022/10/14 03:07:57;;;;;;;1.77;1.00;;;13.40;99.90;;;;;;5077768;28;20036;-79
2022/10/14 03:10:23;;;;;;;2.05;1.20;;;13.30;99.90;;;;;;5077131;28;20032;-79
2022/10/14 03:12:48;;;;;;;3.38;1.10;;;13.30;99.90;;;;;;5077769;28;20400;-79
2022/10/14 03:15:15;;;;;;;3.05;1.50;;;13.30;99.90;;;;;;5077872;28;20075;-79
2022/10/14 03:17:41;;;;;;;2.78;1.08;;;13.30;99.90;;;;;;5077201;28;20098;-79
2022/10/14 03:20:07;;;;;;;1.52;1.23;;;13.20;99.90;;;;;;5075265;28;20051;-79
2022/10/14 03:22:33;;;;;;;3.78;1.02;;;13.20;99.90;;;;;;5074260;28;20036;-79
2022/10/14 03:24:58;;;;;;;1.98;1.08;;;13.20;99.90;;;;;;5075480;28;20514;-79
2022/10/14 03:27:24;;;;;;;1.25;0.80;;;13.20;99.90;;;;;;5074388;28;20050;-79
2022/10/14 03:29:50;;;;;;;3.00;1.00;;;13.30;99.90;;;;;;5075804;28;20039;-79
2022/10/14 03:32:15;;;;;;;2.67;1.13;;;13.30;99.90;;;;;;5074802;28;20439;-79
2022/10/14 03:34:41;;;;;;;2.00;1.08;;;13.30;99.90;;;;;;5076293;28;20497;-80
2022/10/14 03:37:07;;;;;;;2.00;1.60;;;13.40;99.90;;;;;;5076081;28;20085;-79
2022/10/14 03:39:33;;;;;;;5.95;1.65;;;13.30;99.90;;;;;;5076749;28;20041;-80
2022/10/14 03:41:59;;;;;;;2.67;1.52;;;13.30;99.90;;;;;;5077065;28;20127;-79
2022/10/14 03:44:25;;;;;;;3.40;1.17;;;13.20;99.90;;;;;;5076553;28;20043;-79
2022/10/14 03:46:50;;;;;;;1.73;0.90;;;13.20;99.90;;;;;;5077197;28;20049;-79
2022/10/14 03:49:16;;;;;;;1.85;1.20;;;13.20;99.90;;;;;;5074946;28;20094;-79
2022/10/14 03:51:42;;;;;;;2.70;1.13;;;13.20;99.90;;;;;;5076888;28;20044;-79
2022/10/14 03:54:08;;;;;;;2.03;1.15;;;13.30;99.90;;;;;;5075050;28;20102;-79
2022/10/14 03:56:33;;;;;;;2.63;1.30;;;13.30;99.90;;;;;;5077119;28;20116;-79
2022/10/14 03:58:59;;;;;;;2.30;1.35;;;13.30;99.90;;;;;;5075474;28;20040;-79
2022/10/14 04:01:25;;;;;;;2.65;1.42;;;13.30;99.90;;;;;;5077686;28;20496;-79
2022/10/14 04:03:51;;;;;;;3.63;1.10;;;13.40;99.90;;;;;;5078119;28;20055;-79
2022/10/14 04:06:17;;;;;;;3.22;1.17;;;13.50;99.90;;;;;;5076879;28;20044;-79
2022/10/14 04:08:43;;;;;;;1.50;1.20;;;13.50;99.90;;;;;;5078693;28;20048;-80
2022/10/14 04:11:09;;;;;;;2.85;1.40;;;13.50;99.90;;;;;;5076407;28;20044;-79
2022/10/14 04:13:35;;;;;;;2.55;1.25;;;13.50;99.90;;;;;;5075082;28;20032;-80
2022/10/14 04:16:17;;;;;;;1.80;1.20;;;13.50;99.90;;;;;;5076226;28;20558;-80
2022/10/14 04:18:42;;;;;;;2.80;1.88;;;13.50;99.90;;;;;;5076482;28;20387;-79
2022/10/14 04:21:11;;;;;;;5.38;1.23;;;13.50;99.90;;;;;;5076016;28;20044;-79
2022/10/14 04:23:37;;;;;;;2.33;1.42;;;13.50;99.90;;;;;;5076492;28;20547;-80
2022/10/14 04:26:04;;;;;;;3.60;1.17;;;13.50;99.90;;;;;;5075670;28;20087;-79
2022/10/14 04:28:31;;;;;;;1.40;1.08;;;13.50;99.90;;;;;;5077388;28;20036;-79
2022/10/14 04:30:57;;;;;;;5.00;1.63;;;13.40;99.90;;;;;;5078322;28;20040;-79
2022/10/14 04:33:23;;;;;;;2.40;1.45;;;13.40;99.90;;;;;;5078355;28;20028;-79
2022/10/14 04:35:49;;;;;;;7.28;1.38;;;13.50;99.90;;;;;;5080875;28;20040;-79
2022/10/14 04:38:15;;;;;;;2.60;1.45;;;13.50;99.90;;;;;;5081044;28;20043;-79
2022/10/14 04:40:44;;;;;;;1.65;1.33;;;13.50;99.90;;;;;;5079640;28;20040;-79
2022/10/14 04:43:10;;;;;;;1.58;1.15;;;13.40;99.90;;;;;;5080906;28;20492;-79
2022/10/14 04:45:35;;;;;;;5.35;1.25;;;13.40;99.90;;;;;;5080024;28;20063;-79
2022/10/14 04:48:01;;;;;;;2.58;1.40;;;13.50;99.90;;;;;;5078985;28;20040;-79
2022/10/14 04:50:27;;;;;;;3.00;1.45;;;13.40;99.90;;;;;;5079908;28;20092;-79
2022/10/14 04:52:52;;;;;;;2.00;1.27;;;13.30;99.90;;;;;;5076878;28;20552;-78
2022/10/14 04:55:18;;;;;;;2.55;1.17;;;13.20;99.90;;;;;;5077332;28;20183;-78
2022/10/14 04:57:44;;;;;;;2.63;1.15;;;13.20;99.90;;;;;;5074720;28;20044;-79
2022/10/14 05:00:12;;;;;;;3.83;1.30;;;13.10;99.90;;;;;;5075986;28;20052;-78
2022/10/14 05:02:37;;;;;;;3.42;1.15;;;13.20;99.90;;;;;;5076118;28;20041;-78
2022/10/14 05:05:05;;;;;;;3.58;1.55;;;13.30;99.90;;;;;;5077120;28;20062;-78
2022/10/14 05:07:31;;;;;;;2.15;1.20;;;13.30;99.90;;;;;;5072251;28;20036;-77
2022/10/14 05:09:56;;;;;;;3.05;1.38;;;13.40;99.90;;;;;;5071983;28;20131;-79
2022/10/14 05:12:22;;;;;;;3.50;1.25;;;13.40;99.90;;;;;;5066178;28;20075;-78
2022/10/14 05:14:48;;;;;;;2.33;1.40;;;13.40;99.90;;;;;;5078337;28;20038;-78
2022/10/14 05:17:14;;;;;;;3.08;1.45;;;13.40;99.90;;;;;;5085293;28;20083;-79
2022/10/14 05:19:40;;;;;;;2.00;1.40;;;13.40;99.90;;;;;;5080138;28;20040;-79
2022/10/14 05:22:05;;;;;;;1.98;1.30;;;13.40;99.90;;;;;;5078471;28;20041;-78
2022/10/14 05:24:31;;;;;;;2.17;1.50;;;13.40;99.90;;;;;;5081751;28;20181;-79
2022/10/14 05:26:57;;;;;;;2.75;1.60;;;13.30;99.90;;;;;;5075313;28;20512;-79
2022/10/14 05:29:22;;;;;;;5.03;1.30;;;13.40;99.90;;;;;;5060095;28;20481;-79
2022/10/14 05:31:48;;;;;;;3.80;1.50;;;13.40;99.90;;;;;;5057457;28;20120;-78
2022/10/14 05:34:14;;;;;;;2.55;1.60;;;13.30;99.90;;;;;;5055211;28;20431;-79
2022/10/14 05:36:40;;;;;;;1.17;0.95;;;13.30;99.90;;;;;;5056976;28;20053;-79
2022/10/14 05:39:10;;;;;;;3.03;1.67;;;13.20;99.90;;;;;;5057866;28;20048;-78
2022/10/14 05:41:37;;;;;;;2.53;1.33;;;13.20;99.90;;;;;;5057652;28;20056;-77
2022/10/14 05:44:03;;;;;;;2.03;1.50;;;13.10;99.90;;;;;;5057999;28;20072;-79
2022/10/14 05:46:29;;;;;;;2.88;1.52;;;13.10;99.90;;;;;;5059751;28;20045;-79
2022/10/14 05:49:01;;;;;;;4.68;1.88;;;13.10;99.90;;;;;;5055852;28;20041;-79
2022/10/14 05:51:27;;;;;;;3.55;2.47;;;13.00;99.90;;;;;;5053952;28;20040;-79
2022/10/14 05:53:52;;;;;;;4.03;1.85;;;13.10;99.90;;;;;;5054085;28;20067;-80
2022/10/14 05:56:18;;;;;;;2.38;1.83;;;13.00;99.90;;;;;;5054939;28;20063;-78
2022/10/14 05:58:44;;;;;;;2.85;2.08;;;13.10;99.90;;;;;;5060207;28;20123;-79
2022/10/14 06:01:12;;;;;;;12.35;1.98;;;13.10;99.90;;;;;;5063105;28;20048;-79
2022/10/14 06:03:40;;;;;;;2.95;2.03;;;13.20;99.90;;;;;;5055217;28;20090;-79
2022/10/14 06:06:07;;;;;;;2.25;1.60;;;13.10;99.90;;;;;;5068666;28;20508;-78
2022/10/14 06:08:32;;;;;;;2.70;2.10;;;13.10;99.90;;;;;;5069510;28;20052;-81
2022/10/14 06:11:03;;;;;;;4.97;2.60;;;12.80;99.90;;;;;;5059712;28;20071;-79
2022/10/14 06:13:29;;;;;;;3.70;2.50;;;12.80;99.90;;;;;;5054499;28;20025;-78
2022/10/14 06:15:54;;;;;;;3.58;2.22;;;12.70;99.90;;;;;;5053562;28;20052;-78
2022/10/14 06:18:21;;;;;;;2.17;1.65;;;12.70;99.90;;;;;;5055207;28;20400;-77
2022/10/14 06:20:53;;;;;;;5.20;1.92;;;12.70;99.90;;;;;;5051923;28;20045;-78
2022/10/14 06:23:19;;;;;;;3.45;1.60;;;12.50;99.90;;;;;;5053264;28;20037;-77
2022/10/14 06:25:45;;;;;;;2.97;1.50;;;12.50;99.90;;;;;;5053133;28;20051;-82
2022/10/14 06:28:10;;;;;;;1.67;1.30;;;12.60;99.90;;;;;;5052626;28;20047;-77
2022/10/14 06:30:36;;;;;;;2.40;1.52;;;12.70;99.90;;;;;;5053265;28;20037;-78
2022/10/14 06:33:02;;;;;;;2.20;1.45;;;12.70;99.90;;;;;;5053150;28;20033;-77
2022/10/14 06:35:28;;;;;;;2.47;1.70;;;12.80;99.90;;;;;;5056229;28;20427;-78
2022/10/14 06:37:54;;;;;;;2.55;1.55;;;12.80;99.90;;;;;;5055864;28;20044;-77
2022/10/14 06:40:20;;;;;;;4.38;1.77;;;12.80;99.90;;;;;;5054721;28;20045;-78
2022/10/14 06:42:46;;;;;;;2.45;1.50;;;12.80;99.90;;;;;;5056079;28;20045;-78
2022/10/14 06:45:12;;;;;;;2.88;1.80;;;12.80;99.90;;;;;;5055285;28;20048;-78
2022/10/14 06:47:38;;;;;;;2.33;1.35;;;12.90;99.90;;;;;;5054710;28;20396;-82
2022/10/14 06:50:04;;;;;;;2.47;1.63;;;13.00;99.90;;;;;;5054936;28;20044;-78
2022/10/14 06:52:29;;;;;;;2.05;1.50;;;13.00;99.90;;;;;;5054824;28;20045;-78
2022/10/14 06:54:55;;;;;;;3.08;1.42;;;13.10;99.90;;;;;;5054917;28;20036;-78
2022/10/14 06:57:21;;;;;;;3.80;1.30;;;13.20;99.90;;;;;;5056055;28;20049;-78
2022/10/14 06:59:47;;;;;;;3.10;1.80;;;13.30;99.90;;;;;;5054778;28;20499;-83
2022/10/14 07:02:13;;;;;;;3.33;1.25;;;13.20;99.90;;;;;;5056152;28;20068;-82
2022/10/14 07:04:39;;;;;;;2.60;1.48;;;13.30;99.90;;;;;;5055991;28;20032;-78
2022/10/14 07:07:06;;;;;;;5.50;1.83;;;13.30;99.90;;;;;;5056022;28;20500;-77
2022/10/14 07:09:32;;;;;;;4.72;1.25;;;13.30;99.90;;;;;;5054528;28;20131;-82
2022/10/14 07:11:57;;;;;;;3.75;1.55;;;13.40;99.90;;;;;;5055607;28;20132;-83
2022/10/14 07:14:23;;;;;;;8.30;3.58;;;13.40;99.90;;;;;;5055794;28;20071;-77
2022/10/14 07:16:49;;;;;;;6.38;4.75;;;13.50;99.90;;;;;;5055732;28;20087;-78
2022/10/14 07:19:15;;;;;;;4.78;2.90;;;13.50;99.90;;;;;;5055604;28;20040;-79
2022/10/14 07:21:41;;;;;;;3.15;2.40;;;13.50;99.90;;;;;;5055387;28;20037;-82
2022/10/14 07:24:08;;;;;;;4.22;2.67;;;13.40;99.90;;;;;;5055415;28;20040;-80
2022/10/14 07:26:34;;;;;;;4.95;2.70;;;13.30;99.90;;;;;;5055561;28;20068;-79
2022/10/14 07:29:00;;;;;;;4.40;2.30;;;13.40;99.90;;;;;;5055364;28;20413;-83
2022/10/14 07:31:25;;;;;;;3.50;1.60;;;13.50;99.90;;;;;;5054089;28;20037;-81
2022/10/14 07:33:51;;;;;;;3.58;1.83;;;13.50;99.90;;;;;;5055319;28;20044;-79
2022/10/14 07:36:18;;;;;;;2.53;1.67;;;13.50;99.90;;;;;;5055102;28;20439;-79
2022/10/14 07:38:44;;;;;;;3.13;2.25;;;13.60;99.90;;;;;;5054824;28;20051;-83
2022/10/14 07:41:16;;;;;;;5.78;3.03;;;13.70;99.90;;;;;;5054031;28;20127;-77
2022/10/14 07:43:51;;;;;;;3.28;2.08;;;13.70;99.90;;;;;;5053940;28;20045;-83
2022/10/14 07:46:28;;;;;;;3.60;1.83;;;13.70;99.90;;;;;;5053752;28;20079;-84
2022/10/14 07:49:09;;;;;;;2.67;1.75;;;13.70;99.90;;;;;;5053697;28;20081;-77
2022/10/14 07:51:36;;;;;;;5.75;1.70;;;13.70;99.90;;;;;;5055068;28;20041;-77
2022/10/14 07:54:04;;;;;;;6.88;2.35;;;13.80;99.90;;;;;;5055208;28;20068;-83
2022/10/14 07:56:30;;;;;;;7.47;5.00;;;13.80;99.90;;;;;;5054631;28;20041;-79
2022/10/14 07:58:57;;;;;;;6.80;1.98;;;13.90;99.90;;;;;;5054901;28;20396;-79
2022/10/14 08:01:23;;;;;;;3.70;2.25;;;13.90;99.90;;;;;;5054590;28;20044;-78
2022/10/14 08:03:49;;;;;;;3.72;2.05;;;13.90;99.90;;;;;;5053463;28;20048;-80
2022/10/14 08:06:15;;;;;;;4.50;2.28;;;13.90;99.90;;;;;;5053462;28;20056;-82
2022/10/14 08:08:42;;;;;;;3.88;2.35;;;14.00;99.90;;;;;;5054830;28;20488;-82
2022/10/14 08:11:11;;;;;;;2.88;2.15;;;14.00;99.90;;;;;;5054677;28;20068;-78
2022/10/14 08:13:38;;;;;;;5.68;2.58;;;14.00;99.90;;;;;;5054050;28;20047;-77
2022/10/14 08:16:19;;;;;;;4.00;2.30;;;14.10;99.90;;;;;;5054253;28;20036;-78
2022/10/14 08:18:46;;;;;;;3.25;2.45;;;14.10;99.90;;;;;;5053244;28;20037;-76
2022/10/14 08:21:12;;;;;;;10.85;2.67;;;14.20;99.90;;;;;;5054419;28;20037;-82
2022/10/14 08:23:37;;;;;;;8.43;3.85;;;14.20;99.90;;;;;;5054529;28;20052;-82
2022/10/14 08:26:04;;;;;;;5.25;3.00;;;14.10;99.90;;;;;;5054330;28;20053;-83
2022/10/14 08:28:29;;;;;;;3.22;2.40;;;14.20;99.90;;;;;;5052989;28;20037;-77
2022/10/14 08:30:55;;;;;;;5.47;2.80;;;14.20;99.90;;;;;;5054315;28;20619;-77
2022/10/14 08:33:21;;;;;;;4.60;2.80;;;14.30;99.90;;;;;;5054377;28;20128;-84
2022/10/14 08:35:47;;;;;;;7.18;3.78;;;14.20;99.90;;;;;;5054291;28;20041;-74
2022/10/14 08:38:12;;;;;;;5.13;3.55;;;14.60;99.90;;;;;;5054249;28;20041;-75
2022/10/14 08:41:06;;;;;;;7.47;4.38;;;14.30;99.90;;;;;;5053125;28;20048;-79
2022/10/14 08:43:57;;;;;;;10.10;4.32;;;14.30;99.90;;;;;;5054273;28;20044;-82
2022/10/14 08:46:25;;;;;;;;;;;14.30;99.90;;;;;;5051235;28;20370;-81
2022/10/14 08:49:23;;;;;;;9.70;3.58;;;14.40;99.90;;;;;;5053620;28;20319;-82
2022/10/14 08:52:06;;;;;;;6.07;3.88;;;14.40;99.90;;;;;;5052766;28;20048;-78
2022/10/14 08:54:48;;;;;;;5.35;3.20;;;14.50;99.90;;;;;;5054076;28;20072;-82
2022/10/14 08:57:20;;;;;;;7.70;3.53;;;14.60;99.90;;;;;;5052641;28;20106;-82
2022/10/14 08:59:46;;;;;;;4.32;3.28;;;14.70;99.90;;;;;;5053869;28;20043;-83
2022/10/14 09:02:19;;;;;;;10.52;3.42;;;14.60;99.90;;;;;;5054002;28;20052;-78
2022/10/14 09:04:45;;;;;;;5.88;3.13;;;14.50;99.90;;;;;;5053841;28;20053;-77
2022/10/14 09:07:17;;;;;;;9.15;2.97;;;14.50;99.90;;;;;;5052486;28;20106;-77
2022/10/14 09:09:50;;;;;;;6.13;3.38;;;14.60;99.90;;;;;;5054012;28;20516;-77
2022/10/14 09:12:21;;;;;;;4.72;3.28;;;14.90;99.90;;;;;;5052447;28;20068;-83
2022/10/14 09:14:53;;;;;;;;;;;15.00;99.90;;;;;;5054927;28;20163;-83
2022/10/14 09:17:24;;;;;;;5.00;2.33;;;14.90;99.90;;;;;;5072919;28;20281;-77
2022/10/14 09:20:19;;;;;;;4.82;2.15;;;15.00;99.90;;;;;;5073655;28;20048;-77
2022/10/14 09:23:00;;;;;;;7.88;2.72;;;14.90;99.90;;;;;;5070925;28;20115;-77
2022/10/14 09:25:31;;;;;;;4.38;2.38;;;15.00;99.90;;;;;;5065502;28;20060;-78
2022/10/14 09:27:57;;;;;;;3.63;2.47;;;15.10;99.90;;;;;;5073619;28;20036;-84
2022/10/14 09:30:23;;;;;;;4.22;2.33;;;15.20;99.90;;;;;;5073848;28;20054;-76
2022/10/14 09:32:53;;;;;;;3.03;2.00;;;15.20;99.90;;;;;;5069890;28;20052;-82
2022/10/14 09:35:29;;;;;;;;;;;15.00;99.90;;;;;;5050537;28;20045;-84
2022/10/14 09:37:55;;;;;;;2.95;1.90;;;15.00;99.90;;;;;;5052217;28;19991;-83
2022/10/14 09:40:28;;;;;;;2.72;1.75;;;15.10;99.90;;;;;;5053703;28;20412;-76
2022/10/14 09:43:18;;;;;;;2.67;2.03;;;15.20;99.90;;;;;;5053733;28;20520;-75
2022/10/14 09:45:58;;;;;;;2.60;1.98;;;15.20;99.90;;;;;;5053012;28;20040;-75
2022/10/14 09:48:53;;;;;;;4.57;2.25;;;15.20;99.90;;;;;;5053574;28;20044;-76
2022/10/14 09:51:28;;;;;;;3.55;2.10;;;15.20;99.90;;;;;;5053538;28;20041;-75
2022/10/14 09:54:00;;;;;;;5.55;2.50;;;15.20;99.90;;;;;;5052113;28;20553;-74
2022/10/14 09:56:29;;;;;;;5.50;2.10;;;15.20;99.90;;;;;;5053545;28;20477;-75
2022/10/14 09:58:57;;;;;;;4.70;2.00;;;15.20;99.90;;;;;;5053494;28;20051;-75
2022/10/14 10:01:24;;;;;;;4.03;2.45;;;15.20;99.90;;;;;;5055512;28;20041;-75
2022/10/14 10:03:51;;;;;;;4.88;2.70;;;15.20;99.90;;;;;;5057171;28;20532;-74
2022/10/14 10:06:25;;;;;;;4.18;2.22;;;15.30;99.90;;;;;;5056883;28;20132;-85
2022/10/14 10:08:56;;;;;;;3.88;2.47;;;15.40;99.90;;;;;;5055897;28;20079;-75
2022/10/14 10:11:34;;;;;;;6.35;2.47;;;15.40;99.90;;;;;;5056834;28;20041;-85
2022/10/14 10:14:23;;;;;;;4.07;2.90;;;15.50;99.90;;;;;;5056926;28;20571;-75
2022/10/14 10:16:51;;;;;;;3.85;3.08;;;15.50;99.90;;;;;;5056865;28;20131;-84
2022/10/14 10:19:26;;;;;;;5.55;3.20;;;15.40;99.90;;;;;;5055572;28;20063;-76
2022/10/14 10:21:53;;;;;;;5.93;3.60;;;15.20;99.90;;;;;;5055287;28;20033;-75
2022/10/14 10:24:21;;;;;;;5.20;3.63;;;15.20;99.90;;;;;;5056653;28;20048;-83
2022/10/14 10:26:48;;;;;;;6.22;3.33;;;15.20;99.90;;;;;;5056612;28;20075;-83
2022/10/14 10:29:30;;;;;;;8.38;4.35;;;15.20;99.90;;;;;;5055268;28;20493;-77
2022/10/14 10:32:00;;;;;;;6.10;4.25;;;15.20;99.90;;;;;;5056501;28;20041;-78
2022/10/14 10:34:38;;;;;;;6.93;3.90;;;15.30;99.90;;;;;;5055338;28;20405;-82
2022/10/14 10:37:09;;;;;;;6.35;4.03;;;15.30;99.90;;;;;;5054981;28;20515;-78
2022/10/14 10:39:58;;;;;;;5.38;3.72;;;15.30;99.90;;;;;;5056479;28;20044;-79
2022/10/14 10:42:40;;;;;;;5.40;3.42;;;15.30;99.90;;;;;;5056458;28;20052;-78
2022/10/14 10:45:35;;;;;;;8.57;3.83;;;15.30;99.90;;;;;;5054953;28;20047;-83
2022/10/14 10:48:45;;;;;;;6.20;3.78;;;15.40;99.90;;;;;;5056229;28;20060;-79
2022/10/14 10:51:25;;;;;;;11.52;4.05;;;15.40;99.90;;;;;;5055714;28;20136;-78
2022/10/14 10:54:20;;;;;;;8.20;3.95;;;15.40;99.90;;;;;;5054792;28;20131;-81
2022/10/14 10:56:56;;;;;;;7.03;4.10;;;15.30;99.90;;;;;;5055249;28;20036;-79
2022/10/14 10:59:25;;;;;;;8.10;3.30;;;15.50;99.90;;;;;;5056093;28;20128;-81
2022/10/14 11:02:11;;;;;;;5.78;3.40;;;15.50;99.90;;;;;;5056040;28;20043;-81
2022/10/14 11:04:55;;;;;;;8.25;4.07;;;15.60;99.90;;;;;;5054386;28;20040;-80
2022/10/14 11:13:20;;;;;;;5.70;3.42;;;15.80;99.90;;;;;;5054958;28;20120;-78
2022/10/14 11:15:54;;;;;;;6.05;3.78;;;15.80;99.90;;;;;;5055884;28;20037;-83
2022/10/14 11:18:44;;;;;;;4.05;2.95;;;15.80;99.90;;;;;;5055884;28;20404;-78
2022/10/14 11:21:18;;;;;;;5.03;3.38;;;15.70;99.90;;;;;;5055768;28;20041;-78
2022/10/14 11:24:19;;;;;;;5.15;3.60;;;15.80;99.90;;;;;;5071083;28;20032;-83
2022/10/14 11:26:55;;;;;;;;;;;15.90;99.90;;;;;;5055066;28;20055;-79
2022/10/14 11:29:21;;;;;;;3.95;2.95;;;15.90;99.90;;;;;;5055548;28;19916;-78
2022/10/14 11:31:52;;;;;;;5.90;3.22;;;15.80;99.90;;;;;;5055412;28;20029;-78
2022/10/14 11:34:27;;;;;;;4.07;2.78;;;15.90;99.90;;;;;;5054172;28;20393;-83
2022/10/14 11:37:23;;;;;;;5.63;3.45;;;15.90;99.90;;;;;;5055240;28;20095;-78
2022/10/14 11:39:54;;;;;;;6.85;3.17;;;15.90;99.90;;;;;;5054003;28;20049;-79
2022/10/14 11:42:44;;;;;;;4.10;2.95;;;16.00;99.90;;;;;;5055244;28;20041;-79
2022/10/14 11:45:20;;;;;;;5.10;3.20;;;16.00;99.90;;;;;;5055306;28;20471;-81
2022/10/14 11:47:49;;;;;;;4.10;2.90;;;15.90;99.90;;;;;;5055301;28;20041;-79
2022/10/14 11:50:30;;;;;;;5.75;2.50;;;16.00;99.90;;;;;;5055374;28;20037;-82
2022/10/14 11:53:02;;;;;;;3.63;2.30;;;16.10;99.90;;;;;;5053980;28;20504;-78
2022/10/14 11:55:34;;;;;;;4.07;2.65;;;16.10;99.90;;;;;;5055059;28;20041;-79
2022/10/14 11:58:11;;;;;;;4.78;2.50;;;16.10;99.90;;;;;;5055074;28;20468;-78
2022/10/14 12:00:57;;;;;;;8.43;2.35;;;16.10;99.90;;;;;;5054992;28;20045;-79
2022/10/14 12:03:47;;;;;;;4.28;2.47;;;16.10;99.90;;;;;;5054868;28;20040;-81
2022/10/14 12:06:37;;;;;;;3.10;1.87;;;16.30;99.90;;;;;;5053259;28;20049;-80
2022/10/14 12:09:25;;;;;;;2.60;1.95;;;16.20;99.90;;;;;;5053519;28;20317;-79
2022/10/14 12:12:01;;;;;;;2.65;1.85;;;16.20;99.90;;;;;;5054871;28;20068;-79
2022/10/14 12:14:44;;;;;;;5.60;2.20;;;16.30;99.90;;;;;;5053353;28;20391;-80
2022/10/14 12:17:42;;;;;;;4.80;2.00;;;16.40;99.90;;;;;;5054611;28;20410;-78
2022/10/14 12:20:29;;;;;;;3.58;2.22;;;16.50;99.90;;;;;;5069854;28;20047;-83
2022/10/14 12:22:57;;;;;;;4.20;2.60;;;16.40;99.90;;;;;;5054346;28;20400;-83
2022/10/14 12:25:26;;;;;;;4.80;2.95;;;16.30;99.90;;;;;;5054479;28;20056;-77
2022/10/14 12:27:54;;;;;;;4.93;2.90;;;16.30;99.90;;;;;;5054470;28;20091;-76
2022/10/14 12:30:37;;;;;;;50.15;16.20;;;16.30;99.90;;;;;;5053138;28;20059;-75
2022/10/14 12:33:06;;;;;;;16.80;5.40;;;16.30;99.90;;;;;;5053092;28;20489;-76
2022/10/14 12:35:51;;;;;;;6.22;3.67;;;16.40;99.90;;;;;;5054194;28;20476;-76
2022/10/14 12:38:19;;;;;;;8.52;5.47;;;16.30;99.90;;;;;;5054182;28;20051;-77
2022/10/14 12:40:47;;;;;;;12.40;6.55;;;16.40;99.90;;;;;;5054176;28;20408;-77
2022/10/14 12:43:24;;;;;;;17.90;7.70;;;16.40;99.90;;;;;;5052375;28;20040;-75
2022/10/14 12:46:10;;;;;;;11.90;6.93;;;16.40;99.90;;;;;;5051848;28;20055;-75
2022/10/14 12:48:44;;;;;;;10.43;5.32;;;16.40;99.90;;;;;;5052174;28;20172;-75
2022/10/14 12:51:16;;;;;;;5.40;3.58;;;16.40;99.90;;;;;;5051726;28;20493;-76
2022/10/14 12:54:14;;;;;;;7.25;3.90;;;16.40;99.90;;;;;;5050547;28;20037;-79
2022/10/14 12:56:56;;;;;;;6.72;4.25;;;16.40;99.90;;;;;;5049886;28;20036;-80
2022/10/14 12:59:40;;;;;;;8.27;4.28;;;16.40;99.90;;;;;;5051271;28;20044;-76
2022/10/14 13:02:22;;;;;;;7.43;4.00;;;16.50;99.90;;;;;;5051396;28;20520;-75
2022/10/14 13:04:53;;;;;;;4.03;2.03;;;16.50;99.90;;;;;;5066449;28;20115;-75
2022/10/14 13:07:44;;;;;;;2.92;1.92;;;16.50;99.90;;;;;;5072151;28;20052;-76
2022/10/14 13:10:38;;;;;;;1.67;1.27;;;16.50;99.90;;;;;;5071657;28;20045;-79
2022/10/14 13:13:41;;;;;;;2.65;1.52;;;16.40;99.90;;;;;;5071384;28;20065;-76
2022/10/14 13:16:29;;;;;;;3.67;1.27;;;16.40;99.90;;;;;;5071208;28;20072;-76